Time;durP1;ratioP1;P1;durP2;ratioP2;P2;SDS_P1;SDS_P2;PMS_P1;PMS_P2;Temp;Humidity;BMP_temperature;BMP_pressure;BME280_temperature;BME280_humidity;BME280_pressure;Samples;Min_cycle;Max_cycle;Signal;HPM_P1;HPM_P2
2022/08/30 00:01:55;;;;;;;2.00;1.47;;;;;25.10;100935.00;;;;2087305;28;20455;-56
2022/08/30 00:02:55;;;;;;;2.00;1.80;;;;;25.10;100933.00;;;;2086243;28;20475;-57
2022/08/30 00:03:57;;;;;;;1.40;1.20;;;;;25.10;100936.00;;;;2087415;28;20466;-56
2022/08/30 00:05:00;;;;;;;1.60;1.33;;;;;25.10;100929.00;;;;2083094;28;20208;-56
2022/08/30 00:06:00;;;;;;;2.00;1.37;;;;;25.10;100936.00;;;;2086525;28;20539;-56
2022/08/30 00:07:02;;;;;;;2.13;1.57;;;;;25.10;100936.00;;;;2094671;28;20478;-56
2022/08/30 00:08:02;;;;;;;1.87;1.73;;;;;25.10;100929.00;;;;2092640;28;20215;-57
2022/08/30 00:09:03;;;;;;;1.80;1.37;;;;;25.10;100931.00;;;;2094773;28;20834;-55
2022/08/30 00:10:04;;;;;;;1.53;1.23;;;;;25.20;100935.00;;;;2095242;28;20200;-56
2022/08/30 00:11:05;;;;;;;1.50;1.40;;;;;25.20;100939.00;;;;2094449;28;20216;-56
2022/08/30 00:12:05;;;;;;;2.00;1.37;;;;;25.10;100935.00;;;;2086665;28;20224;-56
2022/08/30 00:13:05;;;;;;;1.80;1.50;;;;;25.10;100934.00;;;;2094918;28;20481;-56
2022/08/30 00:14:06;;;;;;;1.50;1.30;;;;;25.20;100934.00;;;;2092746;28;20220;-55
2022/08/30 00:15:08;;;;;;;1.77;1.40;;;;;25.20;100930.00;;;;2090190;28;20249;-56
2022/08/30 00:16:08;;;;;;;2.17;1.53;;;;;25.20;100953.00;;;;2086858;28;20247;-56
2022/08/30 00:17:09;;;;;;;1.37;1.27;;;;;25.10;100930.00;;;;2078614;28;20957;-57
2022/08/30 00:18:10;;;;;;;2.00;1.70;;;;;25.10;100938.00;;;;2091565;28;20223;-55
2022/08/30 00:19:10;;;;;;;1.90;1.60;;;;;25.10;100926.00;;;;2094756;28;20303;-57
2022/08/30 00:20:12;;;;;;;1.40;1.30;;;;;25.10;100929.00;;;;2094591;28;20307;-56
2022/08/30 00:21:12;;;;;;;1.50;1.33;;;;;25.10;100933.00;;;;2094649;28;20216;-55
2022/08/30 00:22:13;;;;;;;2.10;1.90;;;;;25.20;100929.00;;;;2084553;28;20877;-56
2022/08/30 00:23:13;;;;;;;1.43;1.33;;;;;25.10;100933.00;;;;2086673;28;20213;-56
2022/08/30 00:24:13;;;;;;;2.10;1.60;;;;;25.10;100931.00;;;;2086818;28;20221;-57
2022/08/30 00:25:14;;;;;;;1.90;1.70;;;;;25.20;100938.00;;;;2087333;28;20217;-55
2022/08/30 00:26:14;;;;;;;1.57;1.47;;;;;25.20;100937.00;;;;2088524;28;20281;-55
2022/08/30 00:27:15;;;;;;;1.60;1.40;;;;;25.20;100932.00;;;;2094476;28;20720;-56
2022/08/30 00:28:15;;;;;;;1.70;1.60;;;;;25.10;100937.00;;;;2094254;28;20212;-57
2022/08/30 00:29:16;;;;;;;1.80;1.70;;;;;25.10;100939.00;;;;2086164;28;20665;-56
2022/08/30 00:30:16;;;;;;;1.90;1.50;;;;;25.10;100930.00;;;;2094395;28;20224;-56
2022/08/30 00:31:16;;;;;;;2.03;1.77;;;;;25.10;100931.00;;;;2080295;28;20854;-56
2022/08/30 00:32:20;;;;;;;2.27;1.80;;;;;25.20;100938.00;;;;2082106;28;20225;-56
2022/08/30 00:33:20;;;;;;;1.60;1.43;;;;;25.10;100934.00;;;;2094503;28;20226;-56
2022/08/30 00:34:21;;;;;;;1.63;1.50;;;;;25.10;100934.00;;;;2078570;28;21146;-56
2022/08/30 00:35:22;;;;;;;1.63;1.53;;;;;25.10;100937.00;;;;2086278;28;20252;-56
2022/08/30 00:36:22;;;;;;;1.70;1.60;;;;;25.10;100938.00;;;;2093246;28;20219;-56
2022/08/30 00:37:22;;;;;;;1.90;1.70;;;;;25.10;100933.00;;;;2093503;28;20560;-56
2022/08/30 00:38:23;;;;;;;1.70;1.60;;;;;25.10;100929.00;;;;2089696;28;20233;-56
2022/08/30 00:39:23;;;;;;;2.10;1.70;;;;;25.10;100931.00;;;;2094125;28;20227;-55
2022/08/30 00:40:24;;;;;;;2.00;1.87;;;;;25.10;100930.00;;;;2094099;28;20703;-56
2022/08/30 00:41:25;;;;;;;2.47;1.77;;;;;25.10;100929.00;;;;2084977;28;20232;-56
2022/08/30 00:42:25;;;;;;;2.20;2.00;;;;;25.10;100927.00;;;;2083465;28;20517;-56
2022/08/30 00:43:27;;;;;;;1.80;1.67;;;;;25.20;100926.00;;;;2095537;28;20227;-56
2022/08/30 00:44:27;;;;;;;1.83;1.60;;;;;25.10;100930.00;;;;2095481;28;20212;-56
2022/08/30 00:45:33;;;;;;;1.60;1.50;;;;;25.20;100930.00;;;;2095424;28;21149;-56
2022/08/30 00:46:33;;;;;;;1.70;1.50;;;;;25.10;100929.00;;;;2095333;28;20223;-55
2022/08/30 00:47:34;;;;;;;1.67;1.53;;;;;25.10;100926.00;;;;2093909;28;20458;-57
2022/08/30 00:48:36;;;;;;;1.70;1.57;;;;;25.10;100920.00;;;;2094478;28;20233;-56
2022/08/30 00:49:37;;;;;;;1.57;1.47;;;;;25.10;100919.00;;;;2077574;28;20221;-56
2022/08/30 00:50:41;;;;;;;2.50;1.70;;;;;25.10;100926.00;;;;2078189;28;20524;-55
2022/08/30 00:51:41;;;;;;;1.63;1.50;;;;;25.10;100927.00;;;;2077576;28;20221;-56
2022/08/30 00:52:43;;;;;;;1.50;1.40;;;;;25.10;100918.00;;;;2077464;28;20440;-56
2022/08/30 00:53:46;;;;;;;2.20;1.70;;;;;25.10;100925.00;;;;2077407;28;20221;-56
2022/08/30 00:54:47;;;;;;;2.30;1.70;;;;;25.10;100926.00;;;;2076485;28;20458;-57
2022/08/30 00:55:47;;;;;;;2.13;1.70;;;;;25.10;100926.00;;;;2085103;28;20474;-56
2022/08/30 00:56:48;;;;;;;1.47;1.37;;;;;25.10;100921.00;;;;2094081;28;20450;-55
2022/08/30 00:57:50;;;;;;;1.60;1.37;;;;;25.10;100921.00;;;;2093572;28;20219;-55
2022/08/30 00:58:52;;;;;;;1.53;1.37;;;;;25.10;100924.00;;;;2082770;28;20353;-55
2022/08/30 00:59:53;;;;;;;2.07;1.67;;;;;25.10;100932.00;;;;2084744;28;20471;-56
2022/08/30 01:00:53;;;;;;;2.20;1.63;;;;;25.20;100927.00;;;;2076071;28;20822;-56
2022/08/30 01:01:54;;;;;;;1.93;1.60;;;;;25.20;100924.00;;;;2076756;28;20286;-55
2022/08/30 01:02:54;;;;;;;2.00;1.50;;;;;25.10;100931.00;;;;2077964;28;20452;-55
2022/08/30 01:03:55;;;;;;;1.90;1.70;;;;;25.20;100927.00;;;;2076790;28;20263;-57
2022/08/30 01:04:55;;;;;;;2.10;1.90;;;;;25.10;100927.00;;;;2083339;28;20209;-56
2022/08/30 01:05:56;;;;;;;2.07;1.70;;;;;25.10;100927.00;;;;2078131;28;20217;-56
2022/08/30 01:06:56;;;;;;;1.60;1.47;;;;;25.10;100931.00;;;;2077560;28;20303;-56
2022/08/30 01:07:57;;;;;;;1.53;1.43;;;;;25.10;100927.00;;;;2069236;28;20216;-55
2022/08/30 01:08:57;;;;;;;1.97;1.77;;;;;25.10;100928.00;;;;2092044;28;20231;-55
2022/08/30 01:09:57;;;;;;;1.70;1.60;;;;;25.10;100926.00;;;;2088881;28;20452;-55
2022/08/30 01:10:58;;;;;;;1.70;1.40;;;;;25.10;100924.00;;;;2077539;28;20216;-56
2022/08/30 01:11:58;;;;;;;1.87;1.70;;;;;25.10;100933.00;;;;2086768;28;20236;-55
2022/08/30 01:12:59;;;;;;;1.70;1.53;;;;;25.10;100935.00;;;;2086796;28;20224;-55
2022/08/30 01:13:59;;;;;;;2.20;1.77;;;;;25.10;100931.00;;;;2087416;28;20282;-56
2022/08/30 01:15:00;;;;;;;1.83;1.50;;;;;25.10;100937.00;;;;2077925;28;20221;-56
2022/08/30 01:16:00;;;;;;;2.00;1.40;;;;;25.10;100921.00;;;;2077971;28;20304;-55
2022/08/30 01:17:01;;;;;;;1.60;1.30;;;;;25.10;100943.00;;;;2077999;28;20292;-55
2022/08/30 01:18:01;;;;;;;1.97;1.70;;;;;25.10;100943.00;;;;2076991;28;20221;-55
2022/08/30 01:19:02;;;;;;;1.90;1.70;;;;;25.10;100942.00;;;;2081861;28;20228;-55
2022/08/30 01:20:10;;;;;;;2.53;1.70;;;;;25.10;100941.00;;;;2081834;28;20326;-55
2022/08/30 01:21:38;;;;;;;2.00;1.80;;;;;25.10;100938.00;;;;2092081;28;20714;-56
2022/08/30 01:22:43;;;;;;;1.80;1.67;;;;;25.10;100939.00;;;;2091082;28;20477;-55
2022/08/30 01:23:44;;;;;;;1.67;1.57;;;;;25.10;100941.00;;;;2087553;28;20475;-55
2022/08/30 01:24:47;;;;;;;2.57;1.80;;;;;25.10;100936.00;;;;2079941;28;20469;-55
2022/08/30 01:25:48;;;;;;;2.03;1.60;;;;;25.10;100933.00;;;;2075535;28;20913;-55
2022/08/30 01:26:48;;;;;;;2.30;1.80;;;;;25.10;100941.00;;;;2079151;28;20476;-55
2022/08/30 01:28:00;;;;;;;2.10;1.90;;;;;25.10;100930.00;;;;2093181;28;20235;-55
2022/08/30 01:29:03;;;;;;;1.70;1.60;;;;;25.10;100945.00;;;;2087022;28;20243;-56
2022/08/30 01:30:05;;;;;;;1.40;1.27;;;;;25.10;100924.00;;;;2083373;28;20443;-56
2022/08/30 01:31:07;;;;;;;2.03;1.73;;;;;25.10;100928.00;;;;2087098;28;20502;-56
2022/08/30 01:32:08;;;;;;;1.67;1.57;;;;;25.10;100930.00;;;;2081931;28;20455;-56
2022/08/30 01:33:09;;;;;;;1.50;1.40;;;;;25.10;100930.00;;;;2087085;28;20479;-56
2022/08/30 01:34:10;;;;;;;2.10;1.73;;;;;25.10;100929.00;;;;2090225;28;20858;-56
2022/08/30 01:35:11;;;;;;;2.10;1.80;;;;;25.10;100918.00;;;;2088000;28;20209;-55
2022/08/30 01:36:13;;;;;;;1.77;1.60;;;;;25.10;100923.00;;;;2087252;28;20696;-56
2022/08/30 01:37:22;;;;;;;1.73;1.60;;;;;25.10;100929.00;;;;2083429;28;20460;-54
2022/08/30 01:38:26;;;;;;;2.30;1.67;;;;;25.10;100928.00;;;;2086327;28;20467;-55
2022/08/30 01:39:27;;;;;;;1.90;1.70;;;;;25.10;100932.00;;;;2080345;28;20465;-56
2022/08/30 01:40:27;;;;;;;1.73;1.63;;;;;25.10;100937.00;;;;2085521;28;20478;-56
2022/08/30 01:41:29;;;;;;;2.20;1.70;;;;;25.10;100934.00;;;;2086672;28;20274;-56
2022/08/30 01:42:30;;;;;;;2.37;1.77;;;;;25.10;100928.00;;;;2087398;28;20266;-56
2022/08/30 01:43:30;;;;;;;3.03;1.90;;;;;25.10;100933.00;;;;2087640;28;20447;-56
2022/08/30 01:44:31;;;;;;;1.90;1.70;;;;;25.10;100931.00;;;;2087156;28;20212;-56
2022/08/30 01:45:31;;;;;;;1.50;1.40;;;;;25.10;100928.00;;;;2086996;28;20233;-56
2022/08/30 01:46:34;;;;;;;2.17;1.80;;;;;25.10;100930.00;;;;2087014;28;20228;-56
2022/08/30 01:47:35;;;;;;;1.70;1.50;;;;;25.10;100932.00;;;;2094591;28;20305;-56
2022/08/30 01:48:35;;;;;;;1.90;1.60;;;;;25.10;100935.00;;;;2095211;28;20458;-56
2022/08/30 01:49:35;;;;;;;2.77;1.80;;;;;25.10;100935.00;;;;2091925;28;20219;-56
2022/08/30 01:50:36;;;;;;;1.93;1.77;;;;;25.10;100931.00;;;;2086350;28;20205;-56
2022/08/30 01:51:36;;;;;;;2.00;1.80;;;;;25.10;100939.00;;;;2087006;28;20216;-57
2022/08/30 01:52:37;;;;;;;1.70;1.60;;;;;25.10;100936.00;;;;2088748;28;20212;-57
2022/08/30 01:53:41;;;;;;;2.00;1.80;;;;;25.00;100934.00;;;;2095379;28;20219;-56
2022/08/30 01:54:41;;;;;;;1.60;1.50;;;;;25.10;100940.00;;;;2094643;28;20622;-56
2022/08/30 01:55:42;;;;;;;2.10;1.90;;;;;25.10;100945.00;;;;2094679;28;20462;-56
2022/08/30 01:56:42;;;;;;;1.80;1.60;;;;;25.10;100942.00;;;;2095180;28;20281;-56
2022/08/30 01:57:42;;;;;;;1.50;1.40;;;;;25.10;100943.00;;;;2094331;28;20212;-56
2022/08/30 01:58:43;;;;;;;2.10;1.80;;;;;25.10;100948.00;;;;2090780;28;20204;-55
2022/08/30 01:59:46;;;;;;;1.77;1.57;;;;;25.10;100953.00;;;;2077888;28;20221;-56
2022/08/30 02:00:46;;;;;;;1.50;1.40;;;;;25.10;100945.00;;;;2086232;28;20607;-56
2022/08/30 02:01:47;;;;;;;1.83;1.70;;;;;25.10;100945.00;;;;2086196;28;20467;-56
2022/08/30 02:02:48;;;;;;;1.97;1.77;;;;;25.00;100944.00;;;;2087107;28;20295;-56
2022/08/30 02:03:48;;;;;;;1.80;1.57;;;;;25.10;100944.00;;;;2091688;28;20657;-56
2022/08/30 02:04:48;;;;;;;1.90;1.70;;;;;25.10;100942.00;;;;2094978;28;21150;-56
2022/08/30 02:05:49;;;;;;;2.13;1.67;;;;;25.10;100941.00;;;;2095387;28;20231;-56
2022/08/30 02:06:49;;;;;;;2.27;1.40;;;;;25.10;100942.00;;;;2095059;28;20212;-55
2022/08/30 02:07:49;;;;;;;1.70;1.57;;;;;25.10;100948.00;;;;2091264;28;20208;-56
2022/08/30 02:08:50;;;;;;;2.00;1.70;;;;;25.10;100945.00;;;;2088502;28;20217;-56
2022/08/30 02:09:51;;;;;;;1.90;1.80;;;;;25.10;100946.00;;;;2088508;28;20201;-56
2022/08/30 02:10:51;;;;;;;2.20;2.00;;;;;25.10;100945.00;;;;2088473;28;20204;-56
2022/08/30 02:11:51;;;;;;;2.10;1.60;;;;;25.10;100950.00;;;;2088972;28;20447;-56
2022/08/30 02:12:52;;;;;;;1.90;1.80;;;;;25.10;100945.00;;;;2096530;28;20222;-56
2022/08/30 02:13:52;;;;;;;1.43;1.33;;;;;25.10;100940.00;;;;2096856;28;20226;-56
2022/08/30 02:14:52;;;;;;;1.70;1.60;;;;;25.10;100934.00;;;;2096234;28;20591;-56
2022/08/30 02:15:53;;;;;;;1.93;1.60;;;;;25.10;100938.00;;;;2096223;28;20299;-56
2022/08/30 02:16:53;;;;;;;1.90;1.80;;;;;25.10;100935.00;;;;2096664;28;20212;-56
2022/08/30 02:17:54;;;;;;;2.43;1.60;;;;;25.10;100944.00;;;;2095861;28;20687;-56
2022/08/30 02:18:56;;;;;;;1.90;1.60;;;;;25.10;100936.00;;;;2096428;28;23165;-56
2022/08/30 02:19:56;;;;;;;2.00;1.63;;;;;25.10;100933.00;;;;2095854;28;20224;-56
2022/08/30 02:20:56;;;;;;;1.87;1.67;;;;;25.10;100935.00;;;;2095997;28;20454;-55
2022/08/30 02:21:56;;;;;;;1.70;1.60;;;;;25.00;100939.00;;;;2096749;28;20214;-55
2022/08/30 02:22:57;;;;;;;1.77;1.57;;;;;25.00;100939.00;;;;2096753;28;20212;-56
2022/08/30 02:23:57;;;;;;;1.83;1.63;;;;;25.00;100934.00;;;;2096596;28;20250;-56
2022/08/30 02:24:57;;;;;;;1.40;1.30;;;;;25.10;100939.00;;;;2096288;28;20220;-55
2022/08/30 02:25:58;;;;;;;2.73;1.73;;;;;25.10;100931.00;;;;2094529;28;20699;-56
2022/08/30 02:26:58;;;;;;;1.73;1.50;;;;;25.00;100936.00;;;;2095686;28;20396;-55
2022/08/30 02:27:58;;;;;;;1.93;1.67;;;;;25.00;100946.00;;;;2086766;28;20225;-55
2022/08/30 02:28:59;;;;;;;1.80;1.70;;;;;25.10;100938.00;;;;2095599;28;20294;-55
2022/08/30 02:29:59;;;;;;;1.60;1.50;;;;;25.10;100925.00;;;;2096774;28;20303;-56
2022/08/30 02:31:00;;;;;;;1.60;1.50;;;;;25.10;100945.00;;;;2095813;28;20697;-55
2022/08/30 02:32:00;;;;;;;3.40;1.80;;;;;25.10;100936.00;;;;2094934;28;20238;-56
2022/08/30 02:33:00;;;;;;;1.60;1.50;;;;;25.10;100938.00;;;;2095966;28;20707;-55
2022/08/30 02:34:01;;;;;;;1.70;1.60;;;;;25.00;100937.00;;;;2095161;28;20220;-55
2022/08/30 02:35:01;;;;;;;2.10;1.70;;;;;25.00;100937.00;;;;2088372;28;20278;-55
2022/08/30 02:36:02;;;;;;;1.90;1.70;;;;;25.00;100940.00;;;;2087282;28;20712;-55
2022/08/30 02:37:02;;;;;;;1.60;1.50;;;;;25.00;100935.00;;;;2087600;28;20684;-55
2022/08/30 02:38:02;;;;;;;2.37;1.80;;;;;25.00;100936.00;;;;2087361;28;20225;-55
2022/08/30 02:39:03;;;;;;;1.63;1.53;;;;;25.00;100934.00;;;;2087174;28;20220;-55
2022/08/30 02:40:05;;;;;;;1.83;1.57;;;;;25.10;100928.00;;;;2087580;28;20232;-56
2022/08/30 02:41:05;;;;;;;2.10;1.80;;;;;25.10;100940.00;;;;2088178;28;20589;-55
2022/08/30 02:42:05;;;;;;;1.93;1.83;;;;;25.00;100927.00;;;;2087779;28;20449;-55
2022/08/30 02:43:06;;;;;;;2.00;1.80;;;;;25.00;100919.00;;;;2087444;28;20255;-56
2022/08/30 02:44:06;;;;;;;1.50;1.40;;;;;25.10;100924.00;;;;2094892;28;20212;-55
2022/08/30 02:45:07;;;;;;;1.47;1.37;;;;;25.10;100931.00;;;;2096084;28;20212;-56
2022/08/30 02:46:07;;;;;;;1.93;1.73;;;;;25.10;100929.00;;;;2088256;28;20217;-56
2022/08/30 02:47:08;;;;;;;1.60;1.50;;;;;25.00;100929.00;;;;2088254;28;20349;-55
2022/08/30 02:48:08;;;;;;;2.20;2.00;;;;;25.10;100925.00;;;;2085768;28;20224;-56
2022/08/30 02:49:09;;;;;;;1.90;1.70;;;;;25.00;100928.00;;;;2079007;28;20213;-56
2022/08/30 02:50:09;;;;;;;1.83;1.40;;;;;25.10;100792.00;;;;2087712;28;20212;-55
2022/08/30 02:51:11;;;;;;;2.17;1.73;;;;;25.10;100920.00;;;;2095785;28;20652;-56
2022/08/30 02:52:11;;;;;;;2.13;1.73;;;;;25.00;100920.00;;;;2087374;28;20700;-57
2022/08/30 02:53:12;;;;;;;1.93;1.50;;;;;25.00;100921.00;;;;2086863;28;20458;-56
2022/08/30 02:54:18;;;;;;;1.77;1.67;;;;;25.00;100917.00;;;;2088123;28;20221;-56
2022/08/30 02:55:18;;;;;;;1.70;1.60;;;;;25.00;100915.00;;;;2088243;28;20286;-56
2022/08/30 02:56:19;;;;;;;2.23;2.03;;;;;25.00;100911.00;;;;2091412;28;20462;-56
2022/08/30 02:57:19;;;;;;;2.17;1.70;;;;;25.00;100917.00;;;;2095791;28;20220;-56
2022/08/30 02:58:19;;;;;;;1.50;1.40;;;;;25.10;100925.00;;;;2095967;28;20263;-56
2022/08/30 02:59:20;;;;;;;1.87;1.57;;;;;25.10;100918.00;;;;2096161;28;20224;-55
2022/08/30 03:00:20;;;;;;;1.50;1.40;;;;;25.10;100916.00;;;;2096318;28;20231;-56
2022/08/30 03:01:20;;;;;;;1.67;1.57;;;;;25.10;100923.00;;;;2095294;28;20216;-56
2022/08/30 03:02:21;;;;;;;1.50;1.40;;;;;25.00;100920.00;;;;2095634;28;20627;-56
2022/08/30 03:03:21;;;;;;;1.80;1.60;;;;;25.00;100922.00;;;;2095433;28;20675;-55
2022/08/30 03:04:22;;;;;;;1.43;1.30;;;;;25.00;100917.00;;;;2095832;28;20235;-55
2022/08/30 03:05:23;;;;;;;1.70;1.60;;;;;25.00;100919.00;;;;2096261;28;20739;-56
2022/08/30 03:06:23;;;;;;;2.33;1.77;;;;;25.00;100922.00;;;;2096025;28;20454;-56
2022/08/30 03:07:23;;;;;;;1.60;1.50;;;;;25.00;100912.00;;;;2095735;28;20220;-56
2022/08/30 03:08:24;;;;;;;1.90;1.63;;;;;25.10;100917.00;;;;2089980;28;20229;-56
2022/08/30 03:09:24;;;;;;;1.63;1.53;;;;;25.00;100916.00;;;;2079132;28;20245;-56
2022/08/30 03:10:26;;;;;;;1.60;1.50;;;;;25.00;100912.00;;;;2079008;28;20214;-56
2022/08/30 03:11:27;;;;;;;1.47;1.37;;;;;25.00;100915.00;;;;2087926;28;20320;-55
2022/08/30 03:12:27;;;;;;;1.80;1.70;;;;;25.00;100914.00;;;;2087950;28;20463;-55
2022/08/30 03:13:27;;;;;;;1.90;1.70;;;;;25.00;100910.00;;;;2086858;28;20236;-56
2022/08/30 03:14:28;;;;;;;1.60;1.50;;;;;25.00;100916.00;;;;2087850;28;20738;-56
2022/08/30 03:15:28;;;;;;;1.47;1.30;;;;;25.00;100911.00;;;;2087928;28;20220;-56
2022/08/30 03:16:28;;;;;;;2.47;1.47;;;;;25.00;100904.00;;;;2086793;28;20221;-56
2022/08/30 03:17:29;;;;;;;2.00;1.50;;;;;25.00;100916.00;;;;2086600;28;20236;-55
2022/08/30 03:18:30;;;;;;;1.67;1.53;;;;;25.00;100917.00;;;;2087192;28;20216;-56
2022/08/30 03:19:30;;;;;;;1.53;1.43;;;;;25.00;100911.00;;;;2086973;28;20455;-56
2022/08/30 03:20:30;;;;;;;1.73;1.63;;;;;25.00;100911.00;;;;2087440;28;20326;-56
2022/08/30 03:21:31;;;;;;;2.13;1.80;;;;;25.00;100911.00;;;;2087412;28;20205;-55
2022/08/30 03:22:31;;;;;;;1.67;1.57;;;;;25.00;100909.00;;;;2091299;28;20228;-55
2022/08/30 03:23:31;;;;;;;1.90;1.63;;;;;25.00;100907.00;;;;2095793;28;20243;-56
2022/08/30 03:24:32;;;;;;;1.83;1.73;;;;;25.00;100912.00;;;;2095556;28;20249;-56
2022/08/30 03:25:33;;;;;;;1.83;1.63;;;;;25.00;100915.00;;;;2085952;28;20216;-56
2022/08/30 03:26:33;;;;;;;1.40;1.30;;;;;25.00;100908.00;;;;2085970;28;20519;-56
2022/08/30 03:27:33;;;;;;;1.70;1.60;;;;;25.00;100910.00;;;;2094696;28;20318;-56
2022/08/30 03:28:34;;;;;;;1.70;1.60;;;;;25.00;100913.00;;;;2095171;28;20266;-56
2022/08/30 03:29:34;;;;;;;2.10;1.60;;;;;25.00;100911.00;;;;2096041;28;20651;-56
2022/08/30 03:30:34;;;;;;;2.40;1.30;;;;;25.00;100915.00;;;;2090215;28;20220;-56
2022/08/30 03:31:35;;;;;;;1.97;1.47;;;;;25.00;100912.00;;;;2095203;28;20208;-56
2022/08/30 03:32:36;;;;;;;1.60;1.40;;;;;25.00;100911.00;;;;2095417;28;20208;-56
2022/08/30 03:33:36;;;;;;;1.60;1.50;;;;;25.00;100917.00;;;;2094585;28;20296;-55
2022/08/30 03:34:36;;;;;;;3.73;1.70;;;;;25.00;100895.00;;;;2095414;28;20216;-56
2022/08/30 03:35:37;;;;;;;1.57;1.27;;;;;25.00;100911.00;;;;2095202;28;20231;-55
2022/08/30 03:36:37;;;;;;;2.17;1.97;;;;;25.00;100912.00;;;;2089313;28;20239;-56
2022/08/30 03:37:38;;;;;;;2.03;1.63;;;;;25.00;100911.00;;;;2092419;28;20308;-55
2022/08/30 03:38:38;;;;;;;2.17;1.70;;;;;25.10;100918.00;;;;2093522;28;20216;-56
2022/08/30 03:39:39;;;;;;;1.70;1.60;;;;;25.00;100916.00;;;;2095878;28;20216;-55
2022/08/30 03:40:39;;;;;;;2.00;1.80;;;;;25.00;100921.00;;;;2096010;28;20224;-55
2022/08/30 03:41:39;;;;;;;1.80;1.70;;;;;25.00;100916.00;;;;2095535;28;20224;-56
2022/08/30 03:42:40;;;;;;;1.70;1.60;;;;;25.10;100916.00;;;;2095934;28;20278;-56
2022/08/30 03:43:40;;;;;;;2.73;1.83;;;;;25.00;100913.00;;;;2096099;28;20227;-56
2022/08/30 03:44:41;;;;;;;1.50;1.40;;;;;25.00;100919.00;;;;2096058;28;20220;-55
2022/08/30 03:45:41;;;;;;;1.73;1.60;;;;;25.00;100915.00;;;;2095926;28;20240;-55
2022/08/30 03:46:41;;;;;;;2.07;1.70;;;;;25.00;100922.00;;;;2094627;28;20289;-56
2022/08/30 03:47:42;;;;;;;1.70;1.60;;;;;25.00;100919.00;;;;2094941;28;20212;-56
2022/08/30 03:48:42;;;;;;;1.60;1.50;;;;;25.00;100919.00;;;;2094564;28;20243;-56
2022/08/30 03:49:43;;;;;;;1.60;1.43;;;;;25.00;100914.00;;;;2094330;28;20212;-56
2022/08/30 03:50:43;;;;;;;1.77;1.67;;;;;25.00;100916.00;;;;2095431;28;20208;-56
2022/08/30 03:51:43;;;;;;;1.60;1.43;;;;;25.00;100913.00;;;;2095042;28;20216;-56
2022/08/30 03:52:44;;;;;;;2.50;1.70;;;;;25.00;100923.00;;;;2093286;28;20219;-55
2022/08/30 03:53:44;;;;;;;1.80;1.60;;;;;25.00;100918.00;;;;2091790;28;20286;-55
2022/08/30 03:54:45;;;;;;;2.37;1.80;;;;;25.00;100920.00;;;;2095397;28;20216;-56
2022/08/30 03:55:45;;;;;;;1.63;1.53;;;;;25.00;100910.00;;;;2095179;28;20216;-56
2022/08/30 03:56:45;;;;;;;1.97;1.70;;;;;25.00;100917.00;;;;2095889;28;20239;-56
2022/08/30 03:57:46;;;;;;;2.23;1.80;;;;;25.00;100923.00;;;;2094818;28;20212;-55
2022/08/30 03:58:46;;;;;;;1.70;1.60;;;;;25.00;100926.00;;;;2095543;28;20223;-56
2022/08/30 03:59:47;;;;;;;2.00;1.40;;;;;25.00;100916.00;;;;2095710;28;20216;-56
2022/08/30 04:00:47;;;;;;;2.07;1.87;;;;;25.00;100914.00;;;;2095595;28;20668;-56
2022/08/30 04:01:47;;;;;;;1.57;1.47;;;;;25.00;100928.00;;;;2095004;28;20314;-56
2022/08/30 04:02:47;;;;;;;1.63;1.53;;;;;25.00;100926.00;;;;2095281;28;20897;-55
2022/08/30 04:03:48;;;;;;;1.93;1.67;;;;;25.00;100929.00;;;;2095224;28;20224;-56
2022/08/30 04:04:48;;;;;;;2.13;1.60;;;;;25.00;100930.00;;;;2095165;28;20262;-55
2022/08/30 04:05:48;;;;;;;1.70;1.60;;;;;25.00;100925.00;;;;2095225;28;20224;-56
2022/08/30 04:06:49;;;;;;;1.60;1.50;;;;;25.00;100888.00;;;;2095503;28;20269;-56
2022/08/30 04:07:49;;;;;;;1.50;1.40;;;;;25.00;100918.00;;;;2094231;28;20216;-56
2022/08/30 04:08:50;;;;;;;1.50;1.40;;;;;25.00;100927.00;;;;2094704;28;20223;-56
2022/08/30 04:09:50;;;;;;;1.77;1.67;;;;;25.00;100921.00;;;;2095341;28;20250;-56
2022/08/30 04:10:52;;;;;;;1.60;1.40;;;;;25.00;100921.00;;;;2095711;28;20216;-56
2022/08/30 04:11:52;;;;;;;1.60;1.50;;;;;25.00;100917.00;;;;2095228;28;20582;-56
2022/08/30 04:12:52;;;;;;;1.80;1.60;;;;;25.00;100945.00;;;;2095223;28;20455;-56
2022/08/30 04:13:54;;;;;;;1.70;1.60;;;;;25.00;100927.00;;;;2094863;28;20243;-55
2022/08/30 04:14:55;;;;;;;1.50;1.30;;;;;25.00;100927.00;;;;2086498;28;20216;-57
2022/08/30 04:15:55;;;;;;;1.33;1.23;;;;;25.00;100911.00;;;;2094927;28;20450;-56
2022/08/30 04:16:56;;;;;;;1.70;1.57;;;;;25.00;100925.00;;;;2095544;28;20235;-56
2022/08/30 04:17:57;;;;;;;1.80;1.70;;;;;25.00;100924.00;;;;2094551;28;20212;-56
2022/08/30 04:18:57;;;;;;;1.30;1.20;;;;;25.00;100921.00;;;;2094468;28;21009;-56
2022/08/30 04:19:57;;;;;;;1.60;1.50;;;;;25.00;100923.00;;;;2095581;28;20661;-56
2022/08/30 04:20:58;;;;;;;1.37;1.27;;;;;25.00;100934.00;;;;2094184;28;20684;-55
2022/08/30 04:21:58;;;;;;;1.83;1.57;;;;;25.00;100924.00;;;;2095259;28;20257;-56
2022/08/30 04:22:58;;;;;;;1.60;1.43;;;;;25.00;100926.00;;;;2095744;28;20584;-58
2022/08/30 04:23:59;;;;;;;1.53;1.43;;;;;25.00;100921.00;;;;2095490;28;20255;-56
2022/08/30 04:24:59;;;;;;;1.70;1.60;;;;;24.50;100925.00;;;;2094128;28;20314;-56
2022/08/30 04:26:00;;;;;;;1.73;1.50;;;;;25.00;100914.00;;;;2095024;28;20265;-56
2022/08/30 04:27:00;;;;;;;1.70;1.50;;;;;25.00;100924.00;;;;2095615;28;20224;-56
2022/08/30 04:28:01;;;;;;;1.50;1.40;;;;;25.00;100900.00;;;;2094524;28;20216;-56
2022/08/30 04:29:01;;;;;;;1.30;1.20;;;;;25.00;100919.00;;;;2094694;28;20216;-55
2022/08/30 04:30:01;;;;;;;1.80;1.50;;;;;25.00;100917.00;;;;2094164;28;20204;-56
2022/08/30 04:31:13;;;;;;;1.47;1.33;;;;;25.00;100921.00;;;;2089362;28;20270;-56
2022/08/30 04:32:15;;;;;;;1.83;1.73;;;;;25.00;100922.00;;;;2080050;28;20210;-56
2022/08/30 04:33:15;;;;;;;1.37;1.10;;;;;25.00;100914.00;;;;2078689;28;20977;-55
2022/08/30 04:34:15;;;;;;;1.37;1.17;;;;;25.00;100919.00;;;;2078360;28;20452;-56
2022/08/30 04:35:16;;;;;;;1.60;1.40;;;;;24.90;100918.00;;;;2092040;28;20281;-56
2022/08/30 04:36:16;;;;;;;1.40;1.30;;;;;25.00;100927.00;;;;2095630;28;20289;-55
2022/08/30 04:37:16;;;;;;;1.50;1.40;;;;;25.00;100915.00;;;;2094234;28;20734;-56
2022/08/30 04:38:17;;;;;;;2.30;1.60;;;;;25.00;100926.00;;;;2094460;28;20224;-55
2022/08/30 04:39:17;;;;;;;2.33;1.43;;;;;25.00;100926.00;;;;2095096;28;20232;-55
2022/08/30 04:40:19;;;;;;;1.67;1.33;;;;;25.00;100925.00;;;;2095394;28;20325;-55
2022/08/30 04:41:19;;;;;;;1.60;1.50;;;;;25.00;100927.00;;;;2095536;28;20247;-56
2022/08/30 04:42:20;;;;;;;1.80;1.40;;;;;25.00;100922.00;;;;2094401;28;20466;-56
2022/08/30 04:43:20;;;;;;;1.53;1.43;;;;;25.00;100926.00;;;;2093298;28;20680;-56
2022/08/30 04:44:21;;;;;;;1.97;1.60;;;;;25.00;100924.00;;;;2095622;28;20265;-56
2022/08/30 04:45:21;;;;;;;1.40;1.17;;;;;25.00;100929.00;;;;2095529;28;20216;-56
2022/08/30 04:46:21;;;;;;;1.50;1.40;;;;;25.00;100927.00;;;;2095486;28;20220;-55
2022/08/30 04:47:22;;;;;;;1.40;1.30;;;;;25.00;100925.00;;;;2094679;28;20216;-56
2022/08/30 04:48:22;;;;;;;1.97;1.60;;;;;25.00;100925.00;;;;2095387;28;20277;-56
2022/08/30 04:49:23;;;;;;;1.70;1.43;;;;;25.00;100918.00;;;;2094891;28;20224;-56
2022/08/30 04:50:23;;;;;;;1.50;1.40;;;;;25.00;100926.00;;;;2095344;28;20208;-56
2022/08/30 04:51:23;;;;;;;2.13;1.57;;;;;25.00;100926.00;;;;2095663;28;20223;-55
2022/08/30 04:52:24;;;;;;;1.40;1.30;;;;;25.00;100928.00;;;;2092244;28;20217;-56
2022/08/30 04:53:24;;;;;;;1.20;1.10;;;;;25.00;100928.00;;;;2093379;28;20216;-56
2022/08/30 04:54:24;;;;;;;1.50;1.20;;;;;25.00;100930.00;;;;2095296;28;20226;-56
2022/08/30 04:55:25;;;;;;;1.40;1.30;;;;;25.00;100927.00;;;;2090381;28;20213;-56
2022/08/30 04:56:25;;;;;;;1.60;1.50;;;;;25.00;100935.00;;;;2086824;28;20291;-57
2022/08/30 04:57:25;;;;;;;1.53;1.40;;;;;25.00;100939.00;;;;2086592;28;20217;-55
2022/08/30 04:58:26;;;;;;;1.97;1.87;;;;;25.00;100935.00;;;;2086808;28;20216;-56
2022/08/30 04:59:27;;;;;;;1.43;1.30;;;;;25.00;100936.00;;;;2088113;28;20692;-55
2022/08/30 05:00:27;;;;;;;1.40;1.27;;;;;24.90;100941.00;;;;2095683;28;20220;-55
2022/08/30 05:01:31;;;;;;;1.27;1.17;;;;;25.00;100942.00;;;;2092724;28;21351;-56
2022/08/30 05:02:31;;;;;;;1.60;1.50;;;;;25.00;100941.00;;;;2087005;28;20287;-56